sensor_id;sensor_type;location;lat;lon;timestamp;temperature;humidity
10390;DHT22;5241;47.830;12.972;2024-02-28T00:00:55;1.30;99.90
10390;DHT22;5241;47.830;12.972;2024-02-28T00:03:20;1.20;99.90
10390;DHT22;5241;47.830;12.972;2024-02-28T00:05:47;1.20;99.90
10390;DHT22;5241;47.830;12.972;2024-02-28T00:08:13;1.30;99.90
10390;DHT22;5241;47.830;12.972;2024-02-28T00:10:39;1.30;99.90
10390;DHT22;5241;47.830;12.972;2024-02-28T00:13:04;1.30;99.90
10390;DHT22;5241;47.830;12.972;2024-02-28T00:15:30;1.30;99.90
10390;DHT22;5241;47.830;12.972;2024-02-28T00:17:55;1.30;99.90
10390;DHT22;5241;47.830;12.972;2024-02-28T00:20:21;1.30;99.90
10390;DHT22;5241;47.830;12.972;2024-02-28T00:22:46;1.20;99.90
10390;DHT22;5241;47.830;12.972;2024-02-28T00:25:12;1.10;99.90
10390;DHT22;5241;47.830;12.972;2024-02-28T00:27:39;1.10;99.90
10390;DHT22;5241;47.830;12.972;2024-02-28T00:30:05;1.00;99.90
10390;DHT22;5241;47.830;12.972;2024-02-28T00:32:32;1.00;99.90
10390;DHT22;5241;47.830;12.972;2024-02-28T00:34:57;1.00;99.90
10390;DHT22;5241;47.830;12.972;2024-02-28T00:37:23;1.00;99.90
10390;DHT22;5241;47.830;12.972;2024-02-28T00:39:49;0.90;99.90
10390;DHT22;5241;47.830;12.972;2024-02-28T00:42:15;0.90;99.90
10390;DHT22;5241;47.830;12.972;2024-02-28T00:44:41;0.90;99.90
10390;DHT22;5241;47.830;12.972;2024-02-28T00:47:08;0.90;99.90
10390;DHT22;5241;47.830;12.972;2024-02-28T00:49:34;0.90;99.90
10390;DHT22;5241;47.830;12.972;2024-02-28T00:52:00;0.90;99.90
10390;DHT22;5241;47.830;12.972;2024-02-28T00:54:26;0.90;99.90
10390;DHT22;5241;47.830;12.972;2024-02-28T00:56:51;0.80;99.90
10390;DHT22;5241;47.830;12.972;2024-02-28T00:59:17;0.80;99.90
10390;DHT22;5241;47.830;12.972;2024-02-28T01:01:42;0.70;99.90
10390;DHT22;5241;47.830;12.972;2024-02-28T01:04:08;0.70;99.90
10390;DHT22;5241;47.830;12.972;2024-02-28T01:06:33;0.80;99.90
10390;DHT22;5241;47.830;12.972;2024-02-28T01:08:59;0.80;99.90
10390;DHT22;5241;47.830;12.972;2024-02-28T01:11:25;0.90;99.90
10390;DHT22;5241;47.830;12.972;2024-02-28T01:13:50;0.90;99.90
10390;DHT22;5241;47.830;12.972;2024-02-28T01:16:16;0.90;99.90
10390;DHT22;5241;47.830;12.972;2024-02-28T01:18:42;1.00;99.90
10390;DHT22;5241;47.830;12.972;2024-02-28T01:21:07;1.10;99.90
10390;DHT22;5241;47.830;12.972;2024-02-28T01:23:33;1.20;99.90
10390;DHT22;5241;47.830;12.972;2024-02-28T01:25:58;1.20;99.90
10390;DHT22;5241;47.830;12.972;2024-02-28T01:28:24;1.40;99.90
10390;DHT22;5241;47.830;12.972;2024-02-28T01:30:49;1.50;99.90
10390;DHT22;5241;47.830;12.972;2024-02-28T01:33:15;1.50;99.90
10390;DHT22;5241;47.830;12.972;2024-02-28T01:35:41;1.60;99.90
10390;DHT22;5241;47.830;12.972;2024-02-28T01:38:06;1.70;99.90
10390;DHT22;5241;47.830;12.972;2024-02-28T01:40:32;1.70;99.90
10390;DHT22;5241;47.830;12.972;2024-02-28T01:43:06;1.70;99.90
10390;DHT22;5241;47.830;12.972;2024-02-28T01:45:32;1.70;99.90
10390;DHT22;5241;47.830;12.972;2024-02-28T01:47:57;1.70;99.90
10390;DHT22;5241;47.830;12.972;2024-02-28T01:50:23;1.80;99.90
10390;DHT22;5241;47.830;12.972;2024-02-28T01:52:49;1.90;99.90
10390;DHT22;5241;47.830;12.972;2024-02-28T01:55:15;2.10;99.90
10390;DHT22;5241;47.830;12.972;2024-02-28T01:57:40;2.20;99.90
10390;DHT22;5241;47.830;12.972;2024-02-28T02:00:06;2.20;99.90
10390;DHT22;5241;47.830;12.972;2024-02-28T02:02:34;2.20;99.90
10390;DHT22;5241;47.830;12.972;2024-02-28T02:04:59;2.40;99.90
10390;DHT22;5241;47.830;12.972;2024-02-28T02:07:25;2.50;99.90
10390;DHT22;5241;47.830;12.972;2024-02-28T02:09:51;2.30;99.90
10390;DHT22;5241;47.830;12.972;2024-02-28T02:12:18;2.20;99.90
10390;DHT22;5241;47.830;12.972;2024-02-28T02:14:50;2.10;99.90
10390;DHT22;5241;47.830;12.972;2024-02-28T02:17:15;2.00;99.90
10390;DHT22;5241;47.830;12.972;2024-02-28T02:19:42;2.00;99.90
10390;DHT22;5241;47.830;12.972;2024-02-28T02:22:08;2.10;99.90
10390;DHT22;5241;47.830;12.972;2024-02-28T02:24:34;2.10;99.90
10390;DHT22;5241;47.830;12.972;2024-02-28T02:27:01;2.10;99.90
10390;DHT22;5241;47.830;12.972;2024-02-28T02:29:27;2.10;99.90
10390;DHT22;5241;47.830;12.972;2024-02-28T02:31:54;2.00;99.90
10390;DHT22;5241;47.830;12.972;2024-02-28T02:34:19;2.00;99.90
10390;DHT22;5241;47.830;12.972;2024-02-28T02:36:45;2.00;99.90
10390;DHT22;5241;47.830;12.972;2024-02-28T02:39:10;2.10;99.90
10390;DHT22;5241;47.830;12.972;2024-02-28T02:41:36;2.20;99.90
10390;DHT22;5241;47.830;12.972;2024-02-28T02:44:01;2.30;99.90
10390;DHT22;5241;47.830;12.972;2024-02-28T02:46:27;2.40;99.90
10390;DHT22;5241;47.830;12.972;2024-02-28T02:48:52;2.30;99.90
10390;DHT22;5241;47.830;12.972;2024-02-28T02:51:19;2.30;99.90
10390;DHT22;5241;47.830;12.972;2024-02-28T02:53:45;2.40;99.90
10390;DHT22;5241;47.830;12.972;2024-02-28T02:56:10;2.40;99.90
10390;DHT22;5241;47.830;12.972;2024-02-28T02:58:36;2.40;99.90
10390;DHT22;5241;47.830;12.972;2024-02-28T03:01:01;2.50;99.90
10390;DHT22;5241;47.830;12.972;2024-02-28T03:03:27;2.70;99.90
10390;DHT22;5241;47.830;12.972;2024-02-28T03:05:53;2.70;99.90
10390;DHT22;5241;47.830;12.972;2024-02-28T03:08:18;2.80;99.90
10390;DHT22;5241;47.830;12.972;2024-02-28T03:10:44;2.80;99.90
10390;DHT22;5241;47.830;12.972;2024-02-28T03:13:09;2.80;99.90
10390;DHT22;5241;47.830;12.972;2024-02-28T03:15:35;2.80;99.90
10390;DHT22;5241;47.830;12.972;2024-02-28T03:18:00;2.80;99.90
10390;DHT22;5241;47.830;12.972;2024-02-28T03:20:27;2.90;99.90
10390;DHT22;5241;47.830;12.972;2024-02-28T03:22:52;3.10;99.90
10390;DHT22;5241;47.830;12.972;2024-02-28T03:25:18;3.10;99.90
10390;DHT22;5241;47.830;12.972;2024-02-28T03:27:43;3.10;99.90
10390;DHT22;5241;47.830;12.972;2024-02-28T03:30:09;3.10;99.90
10390;DHT22;5241;47.830;12.972;2024-02-28T03:32:34;3.10;99.90
10390;DHT22;5241;47.830;12.972;2024-02-28T03:35:00;3.10;99.90
10390;DHT22;5241;47.830;12.972;2024-02-28T03:37:25;3.20;99.90
10390;DHT22;5241;47.830;12.972;2024-02-28T03:39:51;3.30;99.90
10390;DHT22;5241;47.830;12.972;2024-02-28T03:42:17;3.20;99.90
10390;DHT22;5241;47.830;12.972;2024-02-28T03:44:42;3.30;99.90
10390;DHT22;5241;47.830;12.972;2024-02-28T03:47:09;3.30;99.90
10390;DHT22;5241;47.830;12.972;2024-02-28T03:49:34;3.30;99.90
10390;DHT22;5241;47.830;12.972;2024-02-28T03:52:00;3.20;99.90
10390;DHT22;5241;47.830;12.972;2024-02-28T03:54:26;3.20;99.90
10390;DHT22;5241;47.830;12.972;2024-02-28T03:56:52;3.30;99.90
10390;DHT22;5241;47.830;12.972;2024-02-28T03:59:17;3.30;99.90
10390;DHT22;5241;47.830;12.972;2024-02-28T04:01:43;3.40;99.90
10390;DHT22;5241;47.830;12.972;2024-02-28T04:04:08;3.40;99.90
10390;DHT22;5241;47.830;12.972;2024-02-28T04:06:34;3.50;99.90
10390;DHT22;5241;47.830;12.972;2024-02-28T04:08:59;3.60;99.90
10390;DHT22;5241;47.830;12.972;2024-02-28T04:11:25;3.60;99.90
10390;DHT22;5241;47.830;12.972;2024-02-28T04:13:51;3.60;99.90
10390;DHT22;5241;47.830;12.972;2024-02-28T04:16:16;3.70;99.90
10390;DHT22;5241;47.830;12.972;2024-02-28T04:18:42;3.70;99.90
10390;DHT22;5241;47.830;12.972;2024-02-28T04:21:08;3.70;99.90
10390;DHT22;5241;47.830;12.972;2024-02-28T04:23:34;3.60;99.90
10390;DHT22;5241;47.830;12.972;2024-02-28T04:26:00;3.70;99.90
10390;DHT22;5241;47.830;12.972;2024-02-28T04:28:25;3.80;99.90
10390;DHT22;5241;47.830;12.972;2024-02-28T04:30:51;3.80;99.90
10390;DHT22;5241;47.830;12.972;2024-02-28T04:33:16;3.80;99.90
10390;DHT22;5241;47.830;12.972;2024-02-28T04:35:42;3.80;99.90
10390;DHT22;5241;47.830;12.972;2024-02-28T04:38:07;3.80;99.90
10390;DHT22;5241;47.830;12.972;2024-02-28T04:40:34;3.80;99.90
10390;DHT22;5241;47.830;12.972;2024-02-28T04:42:59;3.80;99.90
10390;DHT22;5241;47.830;12.972;2024-02-28T04:45:25;3.80;99.90
10390;DHT22;5241;47.830;12.972;2024-02-28T04:47:50;3.80;99.90
10390;DHT22;5241;47.830;12.972;2024-02-28T04:50:17;3.80;99.90
10390;DHT22;5241;47.830;12.972;2024-02-28T04:52:43;3.80;99.90
10390;DHT22;5241;47.830;12.972;2024-02-28T04:55:08;3.90;99.90
10390;DHT22;5241;47.830;12.972;2024-02-28T04:57:34;3.90;99.90
10390;DHT22;5241;47.830;12.972;2024-02-28T05:00:00;3.90;99.90
10390;DHT22;5241;47.830;12.972;2024-02-28T05:02:25;3.90;99.90
10390;DHT22;5241;47.830;12.972;2024-02-28T05:04:51;3.90;99.90
10390;DHT22;5241;47.830;12.972;2024-02-28T05:07:17;4.00;99.90
10390;DHT22;5241;47.830;12.972;2024-02-28T05:09:42;4.00;99.90
10390;DHT22;5241;47.830;12.972;2024-02-28T05:12:08;4.00;99.90
10390;DHT22;5241;47.830;12.972;2024-02-28T05:14:34;4.00;99.90
10390;DHT22;5241;47.830;12.972;2024-02-28T05:16:59;3.90;99.90
10390;DHT22;5241;47.830;12.972;2024-02-28T05:19:25;3.90;99.90
10390;DHT22;5241;47.830;12.972;2024-02-28T05:21:50;3.90;99.90
10390;DHT22;5241;47.830;12.972;2024-02-28T05:24:16;3.90;99.90
10390;DHT22;5241;47.830;12.972;2024-02-28T05:26:42;3.90;99.90
10390;DHT22;5241;47.830;12.972;2024-02-28T05:29:07;4.00;99.90
10390;DHT22;5241;47.830;12.972;2024-02-28T05:31:33;3.90;99.90
10390;DHT22;5241;47.830;12.972;2024-02-28T05:34:00;3.90;99.90
10390;DHT22;5241;47.830;12.972;2024-02-28T05:36:27;3.90;99.90
10390;DHT22;5241;47.830;12.972;2024-02-28T05:38:54;3.90;99.90
10390;DHT22;5241;47.830;12.972;2024-02-28T05:41:20;4.00;99.90
10390;DHT22;5241;47.830;12.972;2024-02-28T05:43:47;4.00;99.90
10390;DHT22;5241;47.830;12.972;2024-02-28T05:46:13;4.10;99.90
10390;DHT22;5241;47.830;12.972;2024-02-28T05:48:42;4.10;99.90
10390;DHT22;5241;47.830;12.972;2024-02-28T05:51:08;4.10;99.90
10390;DHT22;5241;47.830;12.972;2024-02-28T05:53:34;4.10;99.90
10390;DHT22;5241;47.830;12.972;2024-02-28T05:56:04;4.00;99.90
10390;DHT22;5241;47.830;12.972;2024-02-28T05:58:29;4.00;99.90
10390;DHT22;5241;47.830;12.972;2024-02-28T06:00:55;4.00;99.90
10390;DHT22;5241;47.830;12.972;2024-02-28T06:03:21;4.00;99.90
10390;DHT22;5241;47.830;12.972;2024-02-28T06:05:47;4.10;99.90
10390;DHT22;5241;47.830;12.972;2024-02-28T06:08:13;4.10;99.90
10390;DHT22;5241;47.830;12.972;2024-02-28T06:10:38;4.00;99.90
10390;DHT22;5241;47.830;12.972;2024-02-28T06:13:04;4.00;99.90
10390;DHT22;5241;47.830;12.972;2024-02-28T06:15:29;4.00;99.90
10390;DHT22;5241;47.830;12.972;2024-02-28T06:17:59;4.00;99.90
10390;DHT22;5241;47.830;12.972;2024-02-28T06:20:26;4.10;99.90
10390;DHT22;5241;47.830;12.972;2024-02-28T06:22:51;4.20;99.90
10390;DHT22;5241;47.830;12.972;2024-02-28T06:25:17;4.20;99.90
10390;DHT22;5241;47.830;12.972;2024-02-28T06:27:48;4.10;99.90
10390;DHT22;5241;47.830;12.972;2024-02-28T06:30:14;4.10;99.90
10390;DHT22;5241;47.830;12.972;2024-02-28T06:32:40;4.20;99.90
10390;DHT22;5241;47.830;12.972;2024-02-28T06:35:06;4.20;99.90
10390;DHT22;5241;47.830;12.972;2024-02-28T06:37:33;4.20;99.90
10390;DHT22;5241;47.830;12.972;2024-02-28T06:39:58;4.10;99.90
10390;DHT22;5241;47.830;12.972;2024-02-28T06:42:24;4.10;99.90
10390;DHT22;5241;47.830;12.972;2024-02-28T06:44:49;4.10;99.90
10390;DHT22;5241;47.830;12.972;2024-02-28T06:47:15;4.00;99.90
10390;DHT22;5241;47.830;12.972;2024-02-28T06:49:41;4.00;99.90
10390;DHT22;5241;47.830;12.972;2024-02-28T06:52:06;4.00;99.90
10390;DHT22;5241;47.830;12.972;2024-02-28T06:54:32;4.00;99.90
10390;DHT22;5241;47.830;12.972;2024-02-28T06:56:57;4.00;99.90
10390;DHT22;5241;47.830;12.972;2024-02-28T06:59:23;4.00;99.90
10390;DHT22;5241;47.830;12.972;2024-02-28T07:01:49;4.00;99.90
10390;DHT22;5241;47.830;12.972;2024-02-28T07:04:14;4.10;99.90
10390;DHT22;5241;47.830;12.972;2024-02-28T07:06:40;4.30;99.90
10390;DHT22;5241;47.830;12.972;2024-02-28T07:09:08;4.20;99.90
10390;DHT22;5241;47.830;12.972;2024-02-28T07:11:34;4.20;99.90
10390;DHT22;5241;47.830;12.972;2024-02-28T07:13:59;4.10;99.90
10390;DHT22;5241;47.830;12.972;2024-02-28T07:16:30;4.10;99.90
10390;DHT22;5241;47.830;12.972;2024-02-28T07:18:57;4.10;99.90
10390;DHT22;5241;47.830;12.972;2024-02-28T07:21:23;4.20;99.90
10390;DHT22;5241;47.830;12.972;2024-02-28T07:23:48;4.20;99.90
10390;DHT22;5241;47.830;12.972;2024-02-28T07:26:17;4.20;99.90
10390;DHT22;5241;47.830;12.972;2024-02-28T07:28:43;4.30;99.90
10390;DHT22;5241;47.830;12.972;2024-02-28T07:31:18;4.50;99.90
10390;DHT22;5241;47.830;12.972;2024-02-28T07:33:45;4.50;99.90
10390;DHT22;5241;47.830;12.972;2024-02-28T07:36:11;4.40;99.90
10390;DHT22;5241;47.830;12.972;2024-02-28T07:38:36;4.50;99.90
10390;DHT22;5241;47.830;12.972;2024-02-28T07:41:02;4.70;99.90
10390;DHT22;5241;47.830;12.972;2024-02-28T07:43:28;4.60;99.90
10390;DHT22;5241;47.830;12.972;2024-02-28T07:45:54;4.70;99.90
10390;DHT22;5241;47.830;12.972;2024-02-28T07:48:19;4.70;99.90
10390;DHT22;5241;47.830;12.972;2024-02-28T07:50:45;4.70;99.90
10390;DHT22;5241;47.830;12.972;2024-02-28T07:53:12;4.80;99.90
10390;DHT22;5241;47.830;12.972;2024-02-28T07:55:37;4.90;99.90
10390;DHT22;5241;47.830;12.972;2024-02-28T07:58:04;5.10;99.90
10390;DHT22;5241;47.830;12.972;2024-02-28T08:00:31;5.00;99.90
10390;DHT22;5241;47.830;12.972;2024-02-28T08:02:58;5.10;99.90
10390;DHT22;5241;47.830;12.972;2024-02-28T08:05:24;5.20;99.90
10390;DHT22;5241;47.830;12.972;2024-02-28T08:07:49;5.10;99.90
10390;DHT22;5241;47.830;12.972;2024-02-28T08:10:15;5.00;99.90
10390;DHT22;5241;47.830;12.972;2024-02-28T08:12:40;5.00;99.90
10390;DHT22;5241;47.830;12.972;2024-02-28T08:15:06;5.10;99.90
10390;DHT22;5241;47.830;12.972;2024-02-28T08:17:31;5.20;99.90
10390;DHT22;5241;47.830;12.972;2024-02-28T08:19:57;5.40;99.90
10390;DHT22;5241;47.830;12.972;2024-02-28T08:22:22;5.40;99.90
10390;DHT22;5241;47.830;12.972;2024-02-28T08:24:53;5.40;99.90
10390;DHT22;5241;47.830;12.972;2024-02-28T08:27:19;5.50;99.90
10390;DHT22;5241;47.830;12.972;2024-02-28T08:29:46;5.50;99.90
10390;DHT22;5241;47.830;12.972;2024-02-28T08:32:12;5.50;99.90
10390;DHT22;5241;47.830;12.972;2024-02-28T08:34:38;5.60;99.90
10390;DHT22;5241;47.830;12.972;2024-02-28T08:37:04;5.50;99.90
10390;DHT22;5241;47.830;12.972;2024-02-28T08:39:29;5.60;99.90
10390;DHT22;5241;47.830;12.972;2024-02-28T08:41:55;5.60;99.90
10390;DHT22;5241;47.830;12.972;2024-02-28T08:44:20;5.60;99.90
10390;DHT22;5241;47.830;12.972;2024-02-28T08:46:47;5.60;99.90
10390;DHT22;5241;47.830;12.972;2024-02-28T08:49:14;5.70;99.90
10390;DHT22;5241;47.830;12.972;2024-02-28T08:51:39;5.70;99.90
10390;DHT22;5241;47.830;12.972;2024-02-28T08:54:06;5.80;99.90
10390;DHT22;5241;47.830;12.972;2024-02-28T08:56:31;5.80;99.90
10390;DHT22;5241;47.830;12.972;2024-02-28T08:58:57;5.80;99.90
10390;DHT22;5241;47.830;12.972;2024-02-28T09:01:22;5.90;99.90
10390;DHT22;5241;47.830;12.972;2024-02-28T09:03:48;6.00;99.90
10390;DHT22;5241;47.830;12.972;2024-02-28T09:06:14;6.00;99.90
10390;DHT22;5241;47.830;12.972;2024-02-28T09:08:39;6.10;99.90
10390;DHT22;5241;47.830;12.972;2024-02-28T09:11:05;6.10;99.90
10390;DHT22;5241;47.830;12.972;2024-02-28T09:13:31;6.10;99.90
10390;DHT22;5241;47.830;12.972;2024-02-28T09:15:56;6.10;99.90
10390;DHT22;5241;47.830;12.972;2024-02-28T09:18:23;6.20;99.90
10390;DHT22;5241;47.830;12.972;2024-02-28T09:20:48;6.20;99.90
10390;DHT22;5241;47.830;12.972;2024-02-28T09:23:14;6.30;99.90
10390;DHT22;5241;47.830;12.972;2024-02-28T09:25:40;6.30;99.90
10390;DHT22;5241;47.830;12.972;2024-02-28T09:28:05;6.40;99.90
10390;DHT22;5241;47.830;12.972;2024-02-28T09:30:31;6.40;99.90
10390;DHT22;5241;47.830;12.972;2024-02-28T09:32:56;6.40;99.90
10390;DHT22;5241;47.830;12.972;2024-02-28T09:35:22;6.50;99.90
10390;DHT22;5241;47.830;12.972;2024-02-28T09:37:48;6.60;99.90
10390;DHT22;5241;47.830;12.972;2024-02-28T09:40:13;6.60;99.90
10390;DHT22;5241;47.830;12.972;2024-02-28T09:42:39;6.70;99.90
10390;DHT22;5241;47.830;12.972;2024-02-28T09:45:08;6.90;99.90
10390;DHT22;5241;47.830;12.972;2024-02-28T09:47:35;7.00;99.90
10390;DHT22;5241;47.830;12.972;2024-02-28T09:50:01;7.10;99.90
10390;DHT22;5241;47.830;12.972;2024-02-28T09:52:28;7.30;99.90
10390;DHT22;5241;47.830;12.972;2024-02-28T09:54:53;7.30;99.90
10390;DHT22;5241;47.830;12.972;2024-02-28T09:57:19;7.30;99.90
10390;DHT22;5241;47.830;12.972;2024-02-28T09:59:46;7.50;99.90
10390;DHT22;5241;47.830;12.972;2024-02-28T10:02:15;7.40;99.90
10390;DHT22;5241;47.830;12.972;2024-02-28T10:04:42;7.20;99.90
10390;DHT22;5241;47.830;12.972;2024-02-28T10:07:12;7.10;99.90
10390;DHT22;5241;47.830;12.972;2024-02-28T10:09:41;7.00;99.90
10390;DHT22;5241;47.830;12.972;2024-02-28T10:12:07;7.20;99.90
10390;DHT22;5241;47.830;12.972;2024-02-28T10:14:33;7.30;99.90
10390;DHT22;5241;47.830;12.972;2024-02-28T10:16:59;7.40;99.90
10390;DHT22;5241;47.830;12.972;2024-02-28T10:19:24;7.50;99.90
10390;DHT22;5241;47.830;12.972;2024-02-28T10:21:50;7.40;99.90
10390;DHT22;5241;47.830;12.972;2024-02-28T10:24:16;7.40;99.90
10390;DHT22;5241;47.830;12.972;2024-02-28T10:26:45;7.30;99.90
10390;DHT22;5241;47.830;12.972;2024-02-28T10:29:21;7.30;99.90
10390;DHT22;5241;47.830;12.972;2024-02-28T10:31:46;7.30;99.90
10390;DHT22;5241;47.830;12.972;2024-02-28T10:34:13;7.30;99.90
10390;DHT22;5241;47.830;12.972;2024-02-28T10:36:41;7.50;99.90
10390;DHT22;5241;47.830;12.972;2024-02-28T10:39:09;7.40;99.90
10390;DHT22;5241;47.830;12.972;2024-02-28T10:41:38;7.50;99.90
10390;DHT22;5241;47.830;12.972;2024-02-28T10:44:03;7.50;99.90
10390;DHT22;5241;47.830;12.972;2024-02-28T10:46:29;7.50;99.90
10390;DHT22;5241;47.830;12.972;2024-02-28T10:48:55;7.60;99.90
10390;DHT22;5241;47.830;12.972;2024-02-28T10:51:24;7.60;99.90
10390;DHT22;5241;47.830;12.972;2024-02-28T10:54:13;7.60;99.90
10390;DHT22;5241;47.830;12.972;2024-02-28T10:56:39;7.60;99.90
10390;DHT22;5241;47.830;12.972;2024-02-28T10:59:07;7.60;99.90
10390;DHT22;5241;47.830;12.972;2024-02-28T11:01:37;7.60;99.90
10390;DHT22;5241;47.830;12.972;2024-02-28T11:04:04;7.70;99.90
10390;DHT22;5241;47.830;12.972;2024-02-28T11:06:30;7.80;99.90
10390;DHT22;5241;47.830;12.972;2024-02-28T11:08:59;7.70;99.90
10390;DHT22;5241;47.830;12.972;2024-02-28T11:11:30;7.80;99.90
10390;DHT22;5241;47.830;12.972;2024-02-28T11:13:57;7.90;99.90
10390;DHT22;5241;47.830;12.972;2024-02-28T11:16:32;7.80;99.90
10390;DHT22;5241;47.830;12.972;2024-02-28T11:18:59;7.80;99.90
10390;DHT22;5241;47.830;12.972;2024-02-28T11:21:25;7.90;99.90
10390;DHT22;5241;47.830;12.972;2024-02-28T11:23:51;7.90;99.90
10390;DHT22;5241;47.830;12.972;2024-02-28T11:26:17;8.10;99.90
10390;DHT22;5241;47.830;12.972;2024-02-28T11:28:43;8.20;99.90
10390;DHT22;5241;47.830;12.972;2024-02-28T11:31:09;8.20;99.90
10390;DHT22;5241;47.830;12.972;2024-02-28T11:33:36;8.10;99.90
10390;DHT22;5241;47.830;12.972;2024-02-28T11:36:01;7.90;99.90
10390;DHT22;5241;47.830;12.972;2024-02-28T11:38:28;7.80;99.90
10390;DHT22;5241;47.830;12.972;2024-02-28T11:40:54;7.80;99.90
10390;DHT22;5241;47.830;12.972;2024-02-28T11:43:23;8.00;99.90
10390;DHT22;5241;47.830;12.972;2024-02-28T11:45:49;8.00;99.90
10390;DHT22;5241;47.830;12.972;2024-02-28T11:48:14;8.20;99.90
10390;DHT22;5241;47.830;12.972;2024-02-28T11:50:40;8.30;99.90
10390;DHT22;5241;47.830;12.972;2024-02-28T11:53:07;8.10;99.90
10390;DHT22;5241;47.830;12.972;2024-02-28T11:55:33;8.20;99.90
10390;DHT22;5241;47.830;12.972;2024-02-28T11:57:58;8.40;99.90
10390;DHT22;5241;47.830;12.972;2024-02-28T12:00:24;8.20;99.90
10390;DHT22;5241;47.830;12.972;2024-02-28T12:02:49;8.00;99.90
10390;DHT22;5241;47.830;12.972;2024-02-28T12:05:15;8.00;99.90
10390;DHT22;5241;47.830;12.972;2024-02-28T12:07:41;7.80;99.90
10390;DHT22;5241;47.830;12.972;2024-02-28T12:10:08;7.60;99.90
10390;DHT22;5241;47.830;12.972;2024-02-28T12:12:34;7.60;99.90
10390;DHT22;5241;47.830;12.972;2024-02-28T12:15:00;7.50;99.90
10390;DHT22;5241;47.830;12.972;2024-02-28T12:17:26;7.50;99.90
10390;DHT22;5241;47.830;12.972;2024-02-28T12:19:52;7.50;99.90
10390;DHT22;5241;47.830;12.972;2024-02-28T12:22:18;7.50;99.90
10390;DHT22;5241;47.830;12.972;2024-02-28T12:24:44;7.40;99.90
10390;DHT22;5241;47.830;12.972;2024-02-28T12:27:10;7.40;99.90
10390;DHT22;5241;47.830;12.972;2024-02-28T12:29:35;7.40;99.90
10390;DHT22;5241;47.830;12.972;2024-02-28T12:32:01;7.50;99.90
10390;DHT22;5241;47.830;12.972;2024-02-28T12:34:27;7.50;99.90
10390;DHT22;5241;47.830;12.972;2024-02-28T12:36:52;7.50;99.90
10390;DHT22;5241;47.830;12.972;2024-02-28T12:39:18;7.60;99.90
10390;DHT22;5241;47.830;12.972;2024-02-28T12:41:43;7.60;99.90
10390;DHT22;5241;47.830;12.972;2024-02-28T12:44:09;7.60;99.90
10390;DHT22;5241;47.830;12.972;2024-02-28T12:46:36;7.60;99.90
10390;DHT22;5241;47.830;12.972;2024-02-28T12:49:03;7.60;99.90
10390;DHT22;5241;47.830;12.972;2024-02-28T12:54:04;7.70;99.90
10390;DHT22;5241;47.830;12.972;2024-02-28T12:56:29;7.80;99.90
10390;DHT22;5241;47.830;12.972;2024-02-28T12:58:55;7.80;99.90
10390;DHT22;5241;47.830;12.972;2024-02-28T13:01:20;7.80;99.90
10390;DHT22;5241;47.830;12.972;2024-02-28T13:03:46;7.70;99.90
10390;DHT22;5241;47.830;12.972;2024-02-28T13:06:14;7.70;99.90
10390;DHT22;5241;47.830;12.972;2024-02-28T13:08:40;7.80;99.90
10390;DHT22;5241;47.830;12.972;2024-02-28T13:11:06;7.60;99.90
10390;DHT22;5241;47.830;12.972;2024-02-28T13:13:32;7.70;99.90
10390;DHT22;5241;47.830;12.972;2024-02-28T13:15:58;7.70;99.90
10390;DHT22;5241;47.830;12.972;2024-02-28T13:18:24;7.80;99.90
10390;DHT22;5241;47.830;12.972;2024-02-28T13:20:51;7.70;99.90
10390;DHT22;5241;47.830;12.972;2024-02-28T13:23:17;7.70;99.90
10390;DHT22;5241;47.830;12.972;2024-02-28T13:25:44;7.80;99.90
10390;DHT22;5241;47.830;12.972;2024-02-28T13:28:09;7.90;99.90
10390;DHT22;5241;47.830;12.972;2024-02-28T13:30:35;7.90;99.90
10390;DHT22;5241;47.830;12.972;2024-02-28T13:33:04;7.80;99.90
10390;DHT22;5241;47.830;12.972;2024-02-28T13:35:30;7.90;99.90
10390;DHT22;5241;47.830;12.972;2024-02-28T13:37:56;7.70;99.90
10390;DHT22;5241;47.830;12.972;2024-02-28T13:40:26;7.80;99.90
10390;DHT22;5241;47.830;12.972;2024-02-28T13:42:51;7.80;99.90
10390;DHT22;5241;47.830;12.972;2024-02-28T13:45:17;7.90;99.90
10390;DHT22;5241;47.830;12.972;2024-02-28T13:47:42;7.90;99.90
10390;DHT22;5241;47.830;12.972;2024-02-28T13:50:08;7.90;99.90
10390;DHT22;5241;47.830;12.972;2024-02-28T13:52:35;7.90;99.90
10390;DHT22;5241;47.830;12.972;2024-02-28T13:55:00;7.90;99.90
10390;DHT22;5241;47.830;12.972;2024-02-28T13:57:26;8.00;99.90
10390;DHT22;5241;47.830;12.972;2024-02-28T13:59:51;7.90;99.90
10390;DHT22;5241;47.830;12.972;2024-02-28T14:02:22;7.90;99.90
10390;DHT22;5241;47.830;12.972;2024-02-28T14:04:54;7.90;99.90
10390;DHT22;5241;47.830;12.972;2024-02-28T14:07:20;8.00;99.90
10390;DHT22;5241;47.830;12.972;2024-02-28T14:09:45;8.10;99.90
10390;DHT22;5241;47.830;12.972;2024-02-28T14:12:11;8.10;99.90
10390;DHT22;5241;47.830;12.972;2024-02-28T14:14:37;8.00;99.90
10390;DHT22;5241;47.830;12.972;2024-02-28T14:17:05;7.90;99.90
10390;DHT22;5241;47.830;12.972;2024-02-28T14:19:30;7.80;99.90
10390;DHT22;5241;47.830;12.972;2024-02-28T14:21:56;7.90;99.90
10390;DHT22;5241;47.830;12.972;2024-02-28T14:24:21;7.80;99.90
10390;DHT22;5241;47.830;12.972;2024-02-28T14:26:47;7.70;99.90
10390;DHT22;5241;47.830;12.972;2024-02-28T14:29:13;7.70;99.90
10390;DHT22;5241;47.830;12.972;2024-02-28T14:31:39;7.70;99.90
10390;DHT22;5241;47.830;12.972;2024-02-28T14:34:05;7.70;99.90
10390;DHT22;5241;47.830;12.972;2024-02-28T14:36:31;7.60;99.90
10390;DHT22;5241;47.830;12.972;2024-02-28T14:38:57;7.60;99.90
10390;DHT22;5241;47.830;12.972;2024-02-28T14:41:23;7.70;99.90
10390;DHT22;5241;47.830;12.972;2024-02-28T14:43:48;7.70;99.90
10390;DHT22;5241;47.830;12.972;2024-02-28T14:46:14;7.70;99.90
10390;DHT22;5241;47.830;12.972;2024-02-28T14:48:42;7.60;99.90
10390;DHT22;5241;47.830;12.972;2024-02-28T14:51:08;7.60;99.90
10390;DHT22;5241;47.830;12.972;2024-02-28T14:53:34;7.50;99.90
10390;DHT22;5241;47.830;12.972;2024-02-28T14:56:00;7.50;99.90
10390;DHT22;5241;47.830;12.972;2024-02-28T14:58:25;7.50;99.90
10390;DHT22;5241;47.830;12.972;2024-02-28T15:00:51;7.40;99.90
10390;DHT22;5241;47.830;12.972;2024-02-28T15:03:17;7.30;99.90
10390;DHT22;5241;47.830;12.972;2024-02-28T15:05:42;7.30;99.90
10390;DHT22;5241;47.830;12.972;2024-02-28T15:08:10;7.30;99.90
10390;DHT22;5241;47.830;12.972;2024-02-28T15:10:35;7.20;99.90
10390;DHT22;5241;47.830;12.972;2024-02-28T15:13:01;7.20;99.90
10390;DHT22;5241;47.830;12.972;2024-02-28T15:15:26;7.20;99.90
10390;DHT22;5241;47.830;12.972;2024-02-28T15:17:53;7.20;99.90
10390;DHT22;5241;47.830;12.972;2024-02-28T15:20:18;7.10;99.90
10390;DHT22;5241;47.830;12.972;2024-02-28T15:22:45;7.10;99.90
10390;DHT22;5241;47.830;12.972;2024-02-28T15:25:11;7.10;99.90
10390;DHT22;5241;47.830;12.972;2024-02-28T15:27:36;7.10;99.90
10390;DHT22;5241;47.830;12.972;2024-02-28T15:30:02;7.10;99.90
10390;DHT22;5241;47.830;12.972;2024-02-28T15:32:30;7.10;99.90
10390;DHT22;5241;47.830;12.972;2024-02-28T15:34:56;7.00;99.90
10390;DHT22;5241;47.830;12.972;2024-02-28T15:37:21;7.00;99.90
10390;DHT22;5241;47.830;12.972;2024-02-28T15:39:47;7.00;99.90